sensor_id;sensor_type;location;lat;lon;timestamp;P1;durP1;ratioP1;P2;durP2;ratioP2
16735;SDS011;17990;49.548;9.730;2023-09-30T00:01:26;3.27;;;1.60;;
16735;SDS011;17990;49.548;9.730;2023-09-30T00:03:52;2.60;;;1.57;;
16735;SDS011;17990;49.548;9.730;2023-09-30T00:06:19;2.83;;;1.47;;
16735;SDS011;17990;49.548;9.730;2023-09-30T00:08:47;4.93;;;1.73;;
16735;SDS011;17990;49.548;9.730;2023-09-30T00:11:15;4.90;;;1.87;;
16735;SDS011;17990;49.548;9.730;2023-09-30T00:13:42;3.27;;;1.80;;
16735;SDS011;17990;49.548;9.730;2023-09-30T00:16:09;5.50;;;1.80;;
16735;SDS011;17990;49.548;9.730;2023-09-30T00:18:35;5.10;;;1.80;;
16735;SDS011;17990;49.548;9.730;2023-09-30T00:21:02;3.70;;;1.80;;
16735;SDS011;17990;49.548;9.730;2023-09-30T00:23:29;3.87;;;1.70;;
16735;SDS011;17990;49.548;9.730;2023-09-30T00:25:57;2.30;;;1.27;;
16735;SDS011;17990;49.548;9.730;2023-09-30T00:28:25;2.67;;;1.60;;
16735;SDS011;17990;49.548;9.730;2023-09-30T00:30:51;4.47;;;1.80;;
16735;SDS011;17990;49.548;9.730;2023-09-30T00:33:18;5.00;;;1.70;;
16735;SDS011;17990;49.548;9.730;2023-09-30T00:35:45;2.40;;;1.77;;
16735;SDS011;17990;49.548;9.730;2023-09-30T00:38:12;5.20;;;1.93;;
16735;SDS011;17990;49.548;9.730;2023-09-30T00:40:40;3.13;;;1.37;;
16735;SDS011;17990;49.548;9.730;2023-09-30T00:43:18;3.67;;;1.80;;
16735;SDS011;17990;49.548;9.730;2023-09-30T00:45:46;3.67;;;2.17;;
16735;SDS011;17990;49.548;9.730;2023-09-30T00:48:15;3.73;;;1.77;;
16735;SDS011;17990;49.548;9.730;2023-09-30T00:50:42;4.97;;;1.60;;
16735;SDS011;17990;49.548;9.730;2023-09-30T00:53:09;3.90;;;2.00;;
16735;SDS011;17990;49.548;9.730;2023-09-30T00:55:36;2.90;;;1.60;;
16735;SDS011;17990;49.548;9.730;2023-09-30T00:58:03;4.97;;;2.13;;
16735;SDS011;17990;49.548;9.730;2023-09-30T01:00:32;4.80;;;2.30;;
16735;SDS011;17990;49.548;9.730;2023-09-30T01:02:59;7.87;;;2.97;;
16735;SDS011;17990;49.548;9.730;2023-09-30T01:05:29;5.60;;;2.80;;
16735;SDS011;17990;49.548;9.730;2023-09-30T01:07:56;4.10;;;2.03;;
16735;SDS011;17990;49.548;9.730;2023-09-30T01:10:22;4.63;;;2.23;;
16735;SDS011;17990;49.548;9.730;2023-09-30T01:12:50;4.27;;;2.20;;
16735;SDS011;17990;49.548;9.730;2023-09-30T01:15:17;6.30;;;2.50;;
16735;SDS011;17990;49.548;9.730;2023-09-30T01:17:45;5.07;;;2.40;;
16735;SDS011;17990;49.548;9.730;2023-09-30T01:20:11;4.73;;;2.40;;
16735;SDS011;17990;49.548;9.730;2023-09-30T01:22:42;6.43;;;2.80;;
16735;SDS011;17990;49.548;9.730;2023-09-30T01:25:10;6.70;;;2.73;;
16735;SDS011;17990;49.548;9.730;2023-09-30T01:27:37;5.63;;;2.63;;
16735;SDS011;17990;49.548;9.730;2023-09-30T01:30:04;5.07;;;2.50;;
16735;SDS011;17990;49.548;9.730;2023-09-30T01:32:35;5.73;;;3.40;;
16735;SDS011;17990;49.548;9.730;2023-09-30T01:35:02;6.97;;;2.90;;
16735;SDS011;17990;49.548;9.730;2023-09-30T01:37:30;4.57;;;2.40;;
16735;SDS011;17990;49.548;9.730;2023-09-30T01:39:58;4.93;;;2.77;;
16735;SDS011;17990;49.548;9.730;2023-09-30T01:42:25;8.83;;;2.60;;
16735;SDS011;17990;49.548;9.730;2023-09-30T01:44:52;5.37;;;2.70;;
16735;SDS011;17990;49.548;9.730;2023-09-30T01:47:19;5.70;;;2.90;;
16735;SDS011;17990;49.548;9.730;2023-09-30T01:49:46;4.70;;;2.83;;
16735;SDS011;17990;49.548;9.730;2023-09-30T01:52:12;6.13;;;3.30;;
16735;SDS011;17990;49.548;9.730;2023-09-30T01:54:39;7.30;;;3.40;;
16735;SDS011;17990;49.548;9.730;2023-09-30T01:57:07;8.73;;;3.43;;
16735;SDS011;17990;49.548;9.730;2023-09-30T01:59:34;7.83;;;3.73;;
16735;SDS011;17990;49.548;9.730;2023-09-30T02:02:01;5.37;;;3.63;;
16735;SDS011;17990;49.548;9.730;2023-09-30T02:04:28;6.10;;;4.03;;
16735;SDS011;17990;49.548;9.730;2023-09-30T02:06:56;7.87;;;4.63;;
16735;SDS011;17990;49.548;9.730;2023-09-30T02:09:22;6.20;;;4.07;;
16735;SDS011;17990;49.548;9.730;2023-09-30T02:11:49;7.17;;;4.47;;
16735;SDS011;17990;49.548;9.730;2023-09-30T02:14:17;7.53;;;4.20;;
16735;SDS011;17990;49.548;9.730;2023-09-30T02:16:44;8.93;;;4.50;;
16735;SDS011;17990;49.548;9.730;2023-09-30T02:19:10;5.93;;;4.20;;
16735;SDS011;17990;49.548;9.730;2023-09-30T02:21:38;7.63;;;4.37;;
16735;SDS011;17990;49.548;9.730;2023-09-30T02:24:05;6.20;;;4.30;;
16735;SDS011;17990;49.548;9.730;2023-09-30T02:26:32;6.90;;;4.57;;
16735;SDS011;17990;49.548;9.730;2023-09-30T02:28:59;7.20;;;4.67;;
16735;SDS011;17990;49.548;9.730;2023-09-30T02:31:27;5.40;;;4.17;;
16735;SDS011;17990;49.548;9.730;2023-09-30T02:33:54;8.97;;;4.83;;
16735;SDS011;17990;49.548;9.730;2023-09-30T02:36:21;8.00;;;4.30;;
16735;SDS011;17990;49.548;9.730;2023-09-30T02:38:47;7.93;;;4.60;;
16735;SDS011;17990;49.548;9.730;2023-09-30T02:41:15;6.47;;;5.13;;
16735;SDS011;17990;49.548;9.730;2023-09-30T02:43:42;7.07;;;4.43;;
16735;SDS011;17990;49.548;9.730;2023-09-30T02:46:09;9.30;;;5.13;;
16735;SDS011;17990;49.548;9.730;2023-09-30T02:48:38;7.33;;;4.53;;
16735;SDS011;17990;49.548;9.730;2023-09-30T02:51:08;5.63;;;4.53;;
16735;SDS011;17990;49.548;9.730;2023-09-30T02:53:36;6.60;;;4.87;;
16735;SDS011;17990;49.548;9.730;2023-09-30T02:56:03;9.73;;;5.40;;
16735;SDS011;17990;49.548;9.730;2023-09-30T02:58:30;8.90;;;5.47;;
16735;SDS011;17990;49.548;9.730;2023-09-30T03:00:56;7.40;;;5.20;;
16735;SDS011;17990;49.548;9.730;2023-09-30T03:03:23;11.63;;;5.13;;
16735;SDS011;17990;49.548;9.730;2023-09-30T03:05:52;7.50;;;4.93;;
16735;SDS011;17990;49.548;9.730;2023-09-30T03:08:19;9.77;;;5.23;;
16735;SDS011;17990;49.548;9.730;2023-09-30T03:10:49;7.13;;;4.90;;
16735;SDS011;17990;49.548;9.730;2023-09-30T03:13:16;9.23;;;5.47;;
16735;SDS011;17990;49.548;9.730;2023-09-30T03:15:45;7.13;;;5.10;;
16735;SDS011;17990;49.548;9.730;2023-09-30T03:18:14;8.40;;;5.40;;
16735;SDS011;17990;49.548;9.730;2023-09-30T03:20:47;8.37;;;5.13;;
16735;SDS011;17990;49.548;9.730;2023-09-30T03:23:17;9.33;;;5.40;;
16735;SDS011;17990;49.548;9.730;2023-09-30T03:25:44;6.77;;;5.30;;
16735;SDS011;17990;49.548;9.730;2023-09-30T03:28:14;8.37;;;5.00;;
16735;SDS011;17990;49.548;9.730;2023-09-30T03:30:40;7.43;;;5.07;;
16735;SDS011;17990;49.548;9.730;2023-09-30T03:33:07;8.17;;;5.30;;
16735;SDS011;17990;49.548;9.730;2023-09-30T03:35:36;6.87;;;5.53;;
16735;SDS011;17990;49.548;9.730;2023-09-30T03:38:03;8.07;;;6.00;;
16735;SDS011;17990;49.548;9.730;2023-09-30T03:40:31;9.03;;;5.70;;
16735;SDS011;17990;49.548;9.730;2023-09-30T03:42:59;8.80;;;5.87;;
16735;SDS011;17990;49.548;9.730;2023-09-30T03:45:27;8.30;;;5.80;;
16735;SDS011;17990;49.548;9.730;2023-09-30T03:47:55;8.60;;;5.60;;
16735;SDS011;17990;49.548;9.730;2023-09-30T03:50:27;7.70;;;5.70;;
16735;SDS011;17990;49.548;9.730;2023-09-30T03:53:00;9.73;;;5.63;;
16735;SDS011;17990;49.548;9.730;2023-09-30T03:55:27;11.33;;;5.77;;
16735;SDS011;17990;49.548;9.730;2023-09-30T03:57:56;9.77;;;5.80;;
16735;SDS011;17990;49.548;9.730;2023-09-30T04:00:22;10.57;;;5.97;;
16735;SDS011;17990;49.548;9.730;2023-09-30T04:02:49;11.43;;;6.20;;
16735;SDS011;17990;49.548;9.730;2023-09-30T04:05:20;10.00;;;6.17;;
16735;SDS011;17990;49.548;9.730;2023-09-30T04:07:51;8.53;;;5.37;;
16735;SDS011;17990;49.548;9.730;2023-09-30T04:10:18;10.17;;;5.77;;
16735;SDS011;17990;49.548;9.730;2023-09-30T04:12:44;9.10;;;5.97;;
16735;SDS011;17990;49.548;9.730;2023-09-30T04:15:12;10.67;;;5.77;;
16735;SDS011;17990;49.548;9.730;2023-09-30T04:17:39;7.13;;;5.80;;
16735;SDS011;17990;49.548;9.730;2023-09-30T04:20:06;9.10;;;5.90;;
16735;SDS011;17990;49.548;9.730;2023-09-30T04:22:41;11.73;;;8.23;;
16735;SDS011;17990;49.548;9.730;2023-09-30T04:25:13;8.23;;;6.13;;
16735;SDS011;17990;49.548;9.730;2023-09-30T04:27:41;9.30;;;6.20;;
16735;SDS011;17990;49.548;9.730;2023-09-30T04:30:10;7.53;;;5.60;;
16735;SDS011;17990;49.548;9.730;2023-09-30T04:32:38;8.53;;;5.67;;
16735;SDS011;17990;49.548;9.730;2023-09-30T04:35:05;7.83;;;5.40;;
16735;SDS011;17990;49.548;9.730;2023-09-30T04:37:33;10.30;;;6.60;;
16735;SDS011;17990;49.548;9.730;2023-09-30T04:40:01;7.03;;;5.77;;
16735;SDS011;17990;49.548;9.730;2023-09-30T04:42:32;11.20;;;6.60;;
16735;SDS011;17990;49.548;9.730;2023-09-30T04:45:01;9.07;;;6.20;;
16735;SDS011;17990;49.548;9.730;2023-09-30T04:47:29;7.77;;;5.70;;
16735;SDS011;17990;49.548;9.730;2023-09-30T04:49:58;8.20;;;6.10;;
16735;SDS011;17990;49.548;9.730;2023-09-30T04:52:29;7.87;;;6.10;;
16735;SDS011;17990;49.548;9.730;2023-09-30T04:54:56;8.90;;;5.93;;
16735;SDS011;17990;49.548;9.730;2023-09-30T04:57:23;8.73;;;5.90;;
16735;SDS011;17990;49.548;9.730;2023-09-30T04:59:50;8.63;;;6.13;;
16735;SDS011;17990;49.548;9.730;2023-09-30T05:02:17;8.50;;;5.67;;
16735;SDS011;17990;49.548;9.730;2023-09-30T05:04:43;8.07;;;5.60;;
16735;SDS011;17990;49.548;9.730;2023-09-30T05:07:11;12.40;;;6.53;;
16735;SDS011;17990;49.548;9.730;2023-09-30T05:09:38;8.77;;;6.53;;
16735;SDS011;17990;49.548;9.730;2023-09-30T05:12:06;8.70;;;5.53;;
16735;SDS011;17990;49.548;9.730;2023-09-30T05:14:33;10.17;;;6.20;;
16735;SDS011;17990;49.548;9.730;2023-09-30T05:17:01;9.30;;;6.10;;
16735;SDS011;17990;49.548;9.730;2023-09-30T05:19:29;9.53;;;6.60;;
16735;SDS011;17990;49.548;9.730;2023-09-30T05:21:56;7.37;;;5.70;;
16735;SDS011;17990;49.548;9.730;2023-09-30T05:24:25;9.10;;;6.10;;
16735;SDS011;17990;49.548;9.730;2023-09-30T05:26:51;7.13;;;6.20;;
16735;SDS011;17990;49.548;9.730;2023-09-30T05:29:18;9.80;;;6.50;;
16735;SDS011;17990;49.548;9.730;2023-09-30T05:31:45;8.57;;;5.90;;
16735;SDS011;17990;49.548;9.730;2023-09-30T05:34:12;6.90;;;6.20;;
16735;SDS011;17990;49.548;9.730;2023-09-30T05:36:39;9.73;;;7.00;;
16735;SDS011;17990;49.548;9.730;2023-09-30T05:39:05;9.90;;;8.33;;
16735;SDS011;17990;49.548;9.730;2023-09-30T05:41:37;11.00;;;7.70;;
16735;SDS011;17990;49.548;9.730;2023-09-30T05:44:04;10.00;;;6.13;;
16735;SDS011;17990;49.548;9.730;2023-09-30T05:46:33;11.03;;;6.53;;
16735;SDS011;17990;49.548;9.730;2023-09-30T05:48:59;10.23;;;6.23;;
16735;SDS011;17990;49.548;9.730;2023-09-30T05:51:26;11.27;;;6.10;;
16735;SDS011;17990;49.548;9.730;2023-09-30T05:53:53;12.13;;;5.87;;
16735;SDS011;17990;49.548;9.730;2023-09-30T05:56:20;12.10;;;6.33;;
16735;SDS011;17990;49.548;9.730;2023-09-30T05:58:49;9.50;;;6.20;;
16735;SDS011;17990;49.548;9.730;2023-09-30T06:01:15;10.60;;;6.03;;
16735;SDS011;17990;49.548;9.730;2023-09-30T06:03:44;8.80;;;5.70;;
16735;SDS011;17990;49.548;9.730;2023-09-30T06:06:12;13.43;;;6.10;;
16735;SDS011;17990;49.548;9.730;2023-09-30T06:08:40;9.93;;;5.83;;
16735;SDS011;17990;49.548;9.730;2023-09-30T06:11:15;9.17;;;5.60;;
16735;SDS011;17990;49.548;9.730;2023-09-30T06:13:43;11.03;;;5.37;;
16735;SDS011;17990;49.548;9.730;2023-09-30T06:16:12;7.33;;;5.13;;
16735;SDS011;17990;49.548;9.730;2023-09-30T06:18:38;7.97;;;5.43;;
16735;SDS011;17990;49.548;9.730;2023-09-30T06:21:05;9.50;;;5.50;;
16735;SDS011;17990;49.548;9.730;2023-09-30T06:23:32;10.13;;;5.60;;
16735;SDS011;17990;49.548;9.730;2023-09-30T06:25:59;9.27;;;5.50;;
16735;SDS011;17990;49.548;9.730;2023-09-30T06:28:27;7.73;;;5.30;;
16735;SDS011;17990;49.548;9.730;2023-09-30T06:30:56;9.57;;;5.03;;
16735;SDS011;17990;49.548;9.730;2023-09-30T06:33:24;9.40;;;6.20;;
16735;SDS011;17990;49.548;9.730;2023-09-30T06:35:54;11.00;;;5.10;;
16735;SDS011;17990;49.548;9.730;2023-09-30T06:38:21;8.00;;;5.10;;
16735;SDS011;17990;49.548;9.730;2023-09-30T06:40:47;7.00;;;4.73;;
16735;SDS011;17990;49.548;9.730;2023-09-30T06:43:14;6.00;;;4.50;;
16735;SDS011;17990;49.548;9.730;2023-09-30T06:45:41;6.80;;;4.93;;
16735;SDS011;17990;49.548;9.730;2023-09-30T06:48:08;10.80;;;4.53;;
16735;SDS011;17990;49.548;9.730;2023-09-30T06:50:38;8.93;;;5.20;;
16735;SDS011;17990;49.548;9.730;2023-09-30T06:53:06;10.80;;;4.60;;
16735;SDS011;17990;49.548;9.730;2023-09-30T06:55:34;8.23;;;4.67;;
16735;SDS011;17990;49.548;9.730;2023-09-30T06:58:03;11.57;;;5.23;;
16735;SDS011;17990;49.548;9.730;2023-09-30T07:00:32;8.43;;;4.50;;
16735;SDS011;17990;49.548;9.730;2023-09-30T07:02:59;8.50;;;4.33;;
16735;SDS011;17990;49.548;9.730;2023-09-30T07:05:26;7.37;;;4.23;;
16735;SDS011;17990;49.548;9.730;2023-09-30T07:07:54;6.13;;;4.03;;
16735;SDS011;17990;49.548;9.730;2023-09-30T07:10:21;6.23;;;4.10;;
16735;SDS011;17990;49.548;9.730;2023-09-30T07:12:48;6.43;;;3.60;;
16735;SDS011;17990;49.548;9.730;2023-09-30T07:15:15;9.40;;;4.20;;
16735;SDS011;17990;49.548;9.730;2023-09-30T07:17:41;5.93;;;4.00;;
16735;SDS011;17990;49.548;9.730;2023-09-30T07:20:08;7.22;;;4.25;;
16735;SDS011;17990;49.548;9.730;2023-09-30T07:22:35;8.32;;;4.20;;
16735;SDS011;17990;49.548;9.730;2023-09-30T07:25:05;6.82;;;4.00;;
16735;SDS011;17990;49.548;9.730;2023-09-30T07:27:32;7.13;;;3.47;;
16735;SDS011;17990;49.548;9.730;2023-09-30T07:29:59;5.95;;;3.75;;
16735;SDS011;17990;49.548;9.730;2023-09-30T07:32:26;7.28;;;4.03;;
16735;SDS011;17990;49.548;9.730;2023-09-30T07:34:52;5.57;;;3.92;;
16735;SDS011;17990;49.548;9.730;2023-09-30T07:37:20;7.45;;;4.20;;
16735;SDS011;17990;49.548;9.730;2023-09-30T07:39:47;6.22;;;4.15;;
16735;SDS011;17990;49.548;9.730;2023-09-30T07:42:15;5.95;;;3.85;;
16735;SDS011;17990;49.548;9.730;2023-09-30T07:44:43;6.28;;;3.60;;
16735;SDS011;17990;49.548;9.730;2023-09-30T07:47:09;9.50;;;4.00;;
16735;SDS011;17990;49.548;9.730;2023-09-30T07:49:37;6.35;;;3.53;;
16735;SDS011;17990;49.548;9.730;2023-09-30T07:52:04;6.25;;;3.45;;
16735;SDS011;17990;49.548;9.730;2023-09-30T07:54:31;7.45;;;3.53;;
16735;SDS011;17990;49.548;9.730;2023-09-30T07:56:57;6.10;;;3.38;;
16735;SDS011;17990;49.548;9.730;2023-09-30T07:59:26;5.93;;;3.28;;
16735;SDS011;17990;49.548;9.730;2023-09-30T08:01:53;5.57;;;3.60;;
16735;SDS011;17990;49.548;9.730;2023-09-30T08:04:21;7.45;;;3.50;;
16735;SDS011;17990;49.548;9.730;2023-09-30T08:06:48;6.03;;;3.47;;
16735;SDS011;17990;49.548;9.730;2023-09-30T08:09:16;6.88;;;3.47;;
16735;SDS011;17990;49.548;9.730;2023-09-30T08:11:43;8.55;;;3.67;;
16735;SDS011;17990;49.548;9.730;2023-09-30T08:14:10;7.75;;;3.78;;
16735;SDS011;17990;49.548;9.730;2023-09-30T08:16:38;6.38;;;3.80;;
16735;SDS011;17990;49.548;9.730;2023-09-30T08:19:05;8.20;;;3.95;;
16735;SDS011;17990;49.548;9.730;2023-09-30T08:21:32;6.78;;;4.15;;
16735;SDS011;17990;49.548;9.730;2023-09-30T08:23:59;9.43;;;4.50;;
16735;SDS011;17990;49.548;9.730;2023-09-30T08:26:26;8.93;;;4.38;;
16735;SDS011;17990;49.548;9.730;2023-09-30T08:28:52;7.87;;;4.00;;
16735;SDS011;17990;49.548;9.730;2023-09-30T08:31:19;6.53;;;3.80;;
16735;SDS011;17990;49.548;9.730;2023-09-30T08:33:48;6.60;;;4.00;;
16735;SDS011;17990;49.548;9.730;2023-09-30T08:36:14;7.43;;;3.72;;
16735;SDS011;17990;49.548;9.730;2023-09-30T08:38:42;6.90;;;3.63;;
16735;SDS011;17990;49.548;9.730;2023-09-30T08:41:09;7.15;;;3.45;;
16735;SDS011;17990;49.548;9.730;2023-09-30T08:43:37;6.40;;;3.75;;
16735;SDS011;17990;49.548;9.730;2023-09-30T08:46:05;6.43;;;3.25;;
16735;SDS011;17990;49.548;9.730;2023-09-30T08:48:33;5.43;;;2.88;;
16735;SDS011;17990;49.548;9.730;2023-09-30T08:51:02;6.78;;;3.47;;
16735;SDS011;17990;49.548;9.730;2023-09-30T08:53:28;6.25;;;3.75;;
16735;SDS011;17990;49.548;9.730;2023-09-30T08:55:56;6.72;;;3.38;;
16735;SDS011;17990;49.548;9.730;2023-09-30T08:58:26;7.40;;;4.18;;
16735;SDS011;17990;49.548;9.730;2023-09-30T09:00:53;5.65;;;3.30;;
16735;SDS011;17990;49.548;9.730;2023-09-30T09:03:21;6.97;;;3.50;;
16735;SDS011;17990;49.548;9.730;2023-09-30T09:05:53;7.47;;;3.63;;
16735;SDS011;17990;49.548;9.730;2023-09-30T09:08:22;5.45;;;2.75;;
16735;SDS011;17990;49.548;9.730;2023-09-30T09:10:53;7.07;;;3.45;;
16735;SDS011;17990;49.548;9.730;2023-09-30T09:13:21;6.70;;;3.35;;
16735;SDS011;17990;49.548;9.730;2023-09-30T09:15:48;7.13;;;3.47;;
16735;SDS011;17990;49.548;9.730;2023-09-30T09:18:19;4.82;;;2.97;;
16735;SDS011;17990;49.548;9.730;2023-09-30T09:21:07;7.00;;;3.40;;
16735;SDS011;17990;49.548;9.730;2023-09-30T09:23:40;7.30;;;3.65;;
16735;SDS011;17990;49.548;9.730;2023-09-30T09:26:07;7.68;;;3.63;;
16735;SDS011;17990;49.548;9.730;2023-09-30T09:28:35;5.32;;;2.95;;
16735;SDS011;17990;49.548;9.730;2023-09-30T09:31:04;6.00;;;3.22;;
16735;SDS011;17990;49.548;9.730;2023-09-30T09:33:45;8.68;;;3.90;;
16735;SDS011;17990;49.548;9.730;2023-09-30T09:36:12;5.95;;;3.30;;
16735;SDS011;17990;49.548;9.730;2023-09-30T09:38:47;6.65;;;2.95;;
16735;SDS011;17990;49.548;9.730;2023-09-30T09:41:15;6.07;;;3.28;;
16735;SDS011;17990;49.548;9.730;2023-09-30T09:43:42;7.40;;;3.22;;
16735;SDS011;17990;49.548;9.730;2023-09-30T09:46:09;6.63;;;3.30;;
16735;SDS011;17990;49.548;9.730;2023-09-30T09:48:37;7.13;;;3.58;;
16735;SDS011;17990;49.548;9.730;2023-09-30T09:51:04;7.93;;;3.13;;
16735;SDS011;17990;49.548;9.730;2023-09-30T09:53:34;8.30;;;3.20;;
16735;SDS011;17990;49.548;9.730;2023-09-30T09:56:04;6.93;;;3.30;;
16735;SDS011;17990;49.548;9.730;2023-09-30T09:58:35;5.20;;;3.15;;
16735;SDS011;17990;49.548;9.730;2023-09-30T10:01:03;7.18;;;3.17;;
16735;SDS011;17990;49.548;9.730;2023-09-30T10:03:32;8.02;;;3.47;;
16735;SDS011;17990;49.548;9.730;2023-09-30T10:05:58;6.38;;;3.30;;
16735;SDS011;17990;49.548;9.730;2023-09-30T10:08:29;6.80;;;3.70;;
16735;SDS011;17990;49.548;9.730;2023-09-30T10:10:58;7.63;;;3.50;;
16735;SDS011;17990;49.548;9.730;2023-09-30T10:19:14;5.68;;;3.28;;
16735;SDS011;17990;49.548;9.730;2023-09-30T10:24:43;5.70;;;3.15;;
16735;SDS011;17990;49.548;9.730;2023-09-30T10:30:06;6.30;;;3.53;;
16735;SDS011;17990;49.548;9.730;2023-09-30T10:35:42;5.18;;;3.42;;
16735;SDS011;17990;49.548;9.730;2023-09-30T10:41:08;6.13;;;3.35;;
16735;SDS011;17990;49.548;9.730;2023-09-30T10:43:36;8.10;;;3.78;;
16735;SDS011;17990;49.548;9.730;2023-09-30T10:46:10;7.47;;;4.28;;
16735;SDS011;17990;49.548;9.730;2023-09-30T10:49:16;8.77;;;3.90;;
16735;SDS011;17990;49.548;9.730;2023-09-30T10:51:58;5.68;;;3.38;;
16735;SDS011;17990;49.548;9.730;2023-09-30T10:54:26;6.70;;;3.40;;
16735;SDS011;17990;49.548;9.730;2023-09-30T10:56:54;6.78;;;3.75;;
16735;SDS011;17990;49.548;9.730;2023-09-30T10:59:22;7.50;;;3.70;;
16735;SDS011;17990;49.548;9.730;2023-09-30T11:01:51;7.85;;;3.55;;
16735;SDS011;17990;49.548;9.730;2023-09-30T11:04:19;7.65;;;4.20;;
16735;SDS011;17990;49.548;9.730;2023-09-30T11:06:46;7.32;;;3.95;;
16735;SDS011;17990;49.548;9.730;2023-09-30T11:09:17;7.28;;;4.10;;
16735;SDS011;17990;49.548;9.730;2023-09-30T11:11:46;14.18;;;4.95;;
16735;SDS011;17990;49.548;9.730;2023-09-30T11:14:18;14.43;;;4.95;;
16735;SDS011;17990;49.548;9.730;2023-09-30T11:16:46;7.55;;;3.88;;
16735;SDS011;17990;49.548;9.730;2023-09-30T11:19:15;6.05;;;3.63;;
16735;SDS011;17990;49.548;9.730;2023-09-30T11:21:42;9.98;;;4.32;;
16735;SDS011;17990;49.548;9.730;2023-09-30T11:24:10;8.02;;;3.90;;
16735;SDS011;17990;49.548;9.730;2023-09-30T11:26:37;8.38;;;4.13;;
16735;SDS011;17990;49.548;9.730;2023-09-30T11:29:06;12.82;;;4.43;;
16735;SDS011;17990;49.548;9.730;2023-09-30T11:31:36;18.63;;;5.65;;
16735;SDS011;17990;49.548;9.730;2023-09-30T11:34:03;41.13;;;8.80;;
16735;SDS011;17990;49.548;9.730;2023-09-30T11:36:33;11.73;;;4.88;;
16735;SDS011;17990;49.548;9.730;2023-09-30T11:39:01;8.35;;;4.20;;
16735;SDS011;17990;49.548;9.730;2023-09-30T11:41:34;8.40;;;3.92;;
16735;SDS011;17990;49.548;9.730;2023-09-30T11:44:03;5.50;;;3.45;;
16735;SDS011;17990;49.548;9.730;2023-09-30T11:46:33;9.95;;;4.03;;
16735;SDS011;17990;49.548;9.730;2023-09-30T11:49:23;9.40;;;4.10;;
16735;SDS011;17990;49.548;9.730;2023-09-30T11:51:52;6.03;;;3.50;;
16735;SDS011;17990;49.548;9.730;2023-09-30T11:54:19;8.32;;;3.92;;
16735;SDS011;17990;49.548;9.730;2023-09-30T11:56:47;8.43;;;3.88;;
16735;SDS011;17990;49.548;9.730;2023-09-30T11:59:13;7.38;;;4.13;;
16735;SDS011;17990;49.548;9.730;2023-09-30T12:01:40;7.97;;;4.20;;
16735;SDS011;17990;49.548;9.730;2023-09-30T12:04:08;7.40;;;3.78;;
16735;SDS011;17990;49.548;9.730;2023-09-30T12:06:36;7.65;;;4.10;;
16735;SDS011;17990;49.548;9.730;2023-09-30T12:09:04;7.57;;;4.00;;
16735;SDS011;17990;49.548;9.730;2023-09-30T12:11:33;8.60;;;4.07;;
16735;SDS011;17990;49.548;9.730;2023-09-30T12:14:00;9.35;;;4.20;;
16735;SDS011;17990;49.548;9.730;2023-09-30T12:16:26;8.30;;;4.15;;
16735;SDS011;17990;49.548;9.730;2023-09-30T12:18:53;8.38;;;4.35;;
16735;SDS011;17990;49.548;9.730;2023-09-30T12:21:20;7.20;;;4.18;;
16735;SDS011;17990;49.548;9.730;2023-09-30T12:23:47;9.23;;;4.10;;
16735;SDS011;17990;49.548;9.730;2023-09-30T12:26:15;6.35;;;3.97;;
16735;SDS011;17990;49.548;9.730;2023-09-30T12:28:42;7.07;;;3.70;;
16735;SDS011;17990;49.548;9.730;2023-09-30T12:31:09;6.75;;;3.97;;
16735;SDS011;17990;49.548;9.730;2023-09-30T12:33:36;7.45;;;3.85;;
16735;SDS011;17990;49.548;9.730;2023-09-30T12:36:03;7.40;;;3.67;;
16735;SDS011;17990;49.548;9.730;2023-09-30T12:38:30;5.70;;;3.40;;
16735;SDS011;17990;49.548;9.730;2023-09-30T12:40:57;7.68;;;4.30;;
16735;SDS011;17990;49.548;9.730;2023-09-30T12:43:25;7.35;;;4.15;;
16735;SDS011;17990;49.548;9.730;2023-09-30T12:45:52;9.27;;;4.32;;
16735;SDS011;17990;49.548;9.730;2023-09-30T12:48:18;7.03;;;3.90;;
16735;SDS011;17990;49.548;9.730;2023-09-30T12:50:45;9.95;;;3.97;;
16735;SDS011;17990;49.548;9.730;2023-09-30T12:53:13;7.35;;;3.72;;
16735;SDS011;17990;49.548;9.730;2023-09-30T12:55:40;8.15;;;3.70;;
16735;SDS011;17990;49.548;9.730;2023-09-30T12:58:08;6.47;;;3.70;;
16735;SDS011;17990;49.548;9.730;2023-09-30T13:00:36;6.75;;;3.72;;
16735;SDS011;17990;49.548;9.730;2023-09-30T13:03:03;7.28;;;3.70;;
16735;SDS011;17990;49.548;9.730;2023-09-30T13:05:30;5.72;;;3.63;;
16735;SDS011;17990;49.548;9.730;2023-09-30T13:07:57;7.75;;;4.18;;
16735;SDS011;17990;49.548;9.730;2023-09-30T13:10:24;7.70;;;3.88;;
16735;SDS011;17990;49.548;9.730;2023-09-30T13:12:51;7.22;;;3.70;;
16735;SDS011;17990;49.548;9.730;2023-09-30T13:15:18;8.88;;;4.50;;
16735;SDS011;17990;49.548;9.730;2023-09-30T13:17:47;6.88;;;4.07;;
16735;SDS011;17990;49.548;9.730;2023-09-30T13:20:14;8.10;;;3.83;;
16735;SDS011;17990;49.548;9.730;2023-09-30T13:22:42;6.47;;;3.35;;
16735;SDS011;17990;49.548;9.730;2023-09-30T13:25:09;7.63;;;4.07;;
16735;SDS011;17990;49.548;9.730;2023-09-30T13:27:37;7.93;;;4.15;;
16735;SDS011;17990;49.548;9.730;2023-09-30T13:30:05;7.68;;;4.28;;
16735;SDS011;17990;49.548;9.730;2023-09-30T13:32:33;10.00;;;3.75;;
16735;SDS011;17990;49.548;9.730;2023-09-30T13:35:02;8.40;;;4.40;;
16735;SDS011;17990;49.548;9.730;2023-09-30T13:37:30;5.35;;;3.55;;
16735;SDS011;17990;49.548;9.730;2023-09-30T13:39:58;6.63;;;3.67;;
16735;SDS011;17990;49.548;9.730;2023-09-30T13:42:25;8.32;;;3.95;;
16735;SDS011;17990;49.548;9.730;2023-09-30T13:44:52;6.22;;;3.80;;
16735;SDS011;17990;49.548;9.730;2023-09-30T13:47:18;7.13;;;3.70;;
16735;SDS011;17990;49.548;9.730;2023-09-30T13:49:45;8.90;;;4.18;;
16735;SDS011;17990;49.548;9.730;2023-09-30T13:52:13;6.40;;;3.58;;
16735;SDS011;17990;49.548;9.730;2023-09-30T13:54:40;7.28;;;3.53;;
16735;SDS011;17990;49.548;9.730;2023-09-30T13:57:07;5.43;;;3.42;;
16735;SDS011;17990;49.548;9.730;2023-09-30T13:59:35;7.75;;;4.00;;
16735;SDS011;17990;49.548;9.730;2023-09-30T14:02:02;8.38;;;3.60;;
16735;SDS011;17990;49.548;9.730;2023-09-30T14:04:29;8.63;;;3.92;;
16735;SDS011;17990;49.548;9.730;2023-09-30T14:06:56;6.13;;;3.85;;
16735;SDS011;17990;49.548;9.730;2023-09-30T14:09:26;8.10;;;3.60;;
16735;SDS011;17990;49.548;9.730;2023-09-30T14:11:53;7.63;;;3.72;;
16735;SDS011;17990;49.548;9.730;2023-09-30T14:14:20;7.88;;;3.75;;
16735;SDS011;17990;49.548;9.730;2023-09-30T14:16:47;7.28;;;3.90;;
16735;SDS011;17990;49.548;9.730;2023-09-30T14:19:13;6.20;;;3.35;;
16735;SDS011;17990;49.548;9.730;2023-09-30T14:21:40;7.43;;;3.97;;
16735;SDS011;17990;49.548;9.730;2023-09-30T14:24:07;6.53;;;3.65;;
16735;SDS011;17990;49.548;9.730;2023-09-30T14:26:36;7.32;;;3.97;;
16735;SDS011;17990;49.548;9.730;2023-09-30T14:29:03;9.02;;;3.90;;
16735;SDS011;17990;49.548;9.730;2023-09-30T14:31:29;8.13;;;3.80;;
16735;SDS011;17990;49.548;9.730;2023-09-30T14:33:56;6.95;;;3.65;;
16735;SDS011;17990;49.548;9.730;2023-09-30T14:36:23;7.57;;;4.07;;
16735;SDS011;17990;49.548;9.730;2023-09-30T14:38:49;6.75;;;4.25;;
16735;SDS011;17990;49.548;9.730;2023-09-30T14:41:16;8.20;;;3.97;;
16735;SDS011;17990;49.548;9.730;2023-09-30T14:43:45;7.82;;;3.40;;
16735;SDS011;17990;49.548;9.730;2023-09-30T14:46:11;6.07;;;3.45;;
16735;SDS011;17990;49.548;9.730;2023-09-30T14:48:37;7.75;;;3.45;;
16735;SDS011;17990;49.548;9.730;2023-09-30T14:51:04;7.63;;;3.85;;
16735;SDS011;17990;49.548;9.730;2023-09-30T14:53:32;5.78;;;3.50;;
16735;SDS011;17990;49.548;9.730;2023-09-30T14:55:59;18.30;;;4.60;;
16735;SDS011;17990;49.548;9.730;2023-09-30T14:58:26;6.70;;;3.47;;
16735;SDS011;17990;49.548;9.730;2023-09-30T15:00:55;7.07;;;3.53;;
16735;SDS011;17990;49.548;9.730;2023-09-30T15:03:22;6.78;;;3.25;;
16735;SDS011;17990;49.548;9.730;2023-09-30T15:05:48;6.18;;;3.53;;
16735;SDS011;17990;49.548;9.730;2023-09-30T15:08:24;5.87;;;2.87;;